sensor_id;sensor_type;location;lat;lon;timestamp;temperature;humidity
58809;DHT22;44579;51.672;7.834;2023-03-24T00:01:34;12.40;79.80
58809;DHT22;44579;51.672;7.834;2023-03-24T00:04:01;12.40;79.80
58809;DHT22;44579;51.672;7.834;2023-03-24T00:06:29;12.40;79.90
58809;DHT22;44579;51.672;7.834;2023-03-24T00:09:00;12.40;80.00
58809;DHT22;44579;51.672;7.834;2023-03-24T00:11:29;12.30;80.10
58809;DHT22;44579;51.672;7.834;2023-03-24T00:14:00;12.30;80.00
58809;DHT22;44579;51.672;7.834;2023-03-24T00:16:28;12.30;80.10
58809;DHT22;44579;51.672;7.834;2023-03-24T00:18:55;12.30;80.20
58809;DHT22;44579;51.672;7.834;2023-03-24T00:21:23;12.30;80.20
58809;DHT22;44579;51.672;7.834;2023-03-24T00:23:50;12.30;80.00
58809;DHT22;44579;51.672;7.834;2023-03-24T00:26:19;12.40;80.10
58809;DHT22;44579;51.672;7.834;2023-03-24T00:28:47;12.30;80.00
58809;DHT22;44579;51.672;7.834;2023-03-24T00:31:15;12.40;80.10
58809;DHT22;44579;51.672;7.834;2023-03-24T00:33:43;12.40;80.10
58809;DHT22;44579;51.672;7.834;2023-03-24T00:36:10;12.40;80.20
58809;DHT22;44579;51.672;7.834;2023-03-24T00:38:39;12.40;80.20
58809;DHT22;44579;51.672;7.834;2023-03-24T00:41:07;12.40;80.20
58809;DHT22;44579;51.672;7.834;2023-03-24T00:43:34;12.30;80.20
58809;DHT22;44579;51.672;7.834;2023-03-24T00:46:02;12.30;80.20
58809;DHT22;44579;51.672;7.834;2023-03-24T00:48:32;12.40;80.20
58809;DHT22;44579;51.672;7.834;2023-03-24T00:51:00;12.40;80.20
58809;DHT22;44579;51.672;7.834;2023-03-24T00:53:28;12.40;80.30
58809;DHT22;44579;51.672;7.834;2023-03-24T00:55:55;12.30;80.20
58809;DHT22;44579;51.672;7.834;2023-03-24T00:58:23;12.40;80.20
58809;DHT22;44579;51.672;7.834;2023-03-24T01:00:53;12.40;80.30
58809;DHT22;44579;51.672;7.834;2023-03-24T01:03:20;12.40;80.30
58809;DHT22;44579;51.672;7.834;2023-03-24T01:05:48;12.40;80.30
58809;DHT22;44579;51.672;7.834;2023-03-24T01:08:15;12.40;80.30
58809;DHT22;44579;51.672;7.834;2023-03-24T01:10:46;12.40;80.30
58809;DHT22;44579;51.672;7.834;2023-03-24T01:13:19;12.40;80.80
58809;DHT22;44579;51.672;7.834;2023-03-24T01:15:46;12.40;80.30
58809;DHT22;44579;51.672;7.834;2023-03-24T01:18:14;12.40;80.30
58809;DHT22;44579;51.672;7.834;2023-03-24T01:20:42;12.40;80.30
58809;DHT22;44579;51.672;7.834;2023-03-24T01:23:12;12.50;80.40
58809;DHT22;44579;51.672;7.834;2023-03-24T01:25:40;12.50;80.30
58809;DHT22;44579;51.672;7.834;2023-03-24T01:28:11;12.50;80.30
58809;DHT22;44579;51.672;7.834;2023-03-24T01:30:38;12.50;80.30
58809;DHT22;44579;51.672;7.834;2023-03-24T01:33:06;12.50;80.60
58809;DHT22;44579;51.672;7.834;2023-03-24T01:35:33;12.50;80.30
58809;DHT22;44579;51.672;7.834;2023-03-24T01:38:03;12.60;80.40
58809;DHT22;44579;51.672;7.834;2023-03-24T01:40:31;12.60;80.50
58809;DHT22;44579;51.672;7.834;2023-03-24T01:42:58;12.60;80.60
58809;DHT22;44579;51.672;7.834;2023-03-24T01:45:38;12.60;80.70
58809;DHT22;44579;51.672;7.834;2023-03-24T01:48:53;12.60;80.70
58809;DHT22;44579;51.672;7.834;2023-03-24T01:51:05;12.60;80.60
58809;DHT22;44579;51.672;7.834;2023-03-24T01:53:34;12.60;80.70
58809;DHT22;44579;51.672;7.834;2023-03-24T01:56:02;12.60;80.70
58809;DHT22;44579;51.672;7.834;2023-03-24T01:58:38;12.60;80.90
58809;DHT22;44579;51.672;7.834;2023-03-24T02:01:16;12.60;80.90
58809;DHT22;44579;51.672;7.834;2023-03-24T02:03:59;12.60;80.90
58809;DHT22;44579;51.672;7.834;2023-03-24T02:06:34;12.60;80.90
58809;DHT22;44579;51.672;7.834;2023-03-24T02:09:02;12.60;80.90
58809;DHT22;44579;51.672;7.834;2023-03-24T02:11:30;12.60;81.10
58809;DHT22;44579;51.672;7.834;2023-03-24T02:14:01;12.60;81.10
58809;DHT22;44579;51.672;7.834;2023-03-24T02:16:47;12.50;81.10
58809;DHT22;44579;51.672;7.834;2023-03-24T02:22:12;12.50;81.20
58809;DHT22;44579;51.672;7.834;2023-03-24T02:25:00;12.50;81.30
58809;DHT22;44579;51.672;7.834;2023-03-24T02:27:51;12.50;81.30
58809;DHT22;44579;51.672;7.834;2023-03-24T02:30:25;12.50;81.30
58809;DHT22;44579;51.672;7.834;2023-03-24T02:33:07;12.50;81.30
58809;DHT22;44579;51.672;7.834;2023-03-24T02:35:44;12.50;81.30
58809;DHT22;44579;51.672;7.834;2023-03-24T02:38:38;12.50;81.20
58809;DHT22;44579;51.672;7.834;2023-03-24T02:41:52;12.50;81.20
58809;DHT22;44579;51.672;7.834;2023-03-24T02:44:08;12.50;81.20
58809;DHT22;44579;51.672;7.834;2023-03-24T02:46:41;12.50;81.20
58809;DHT22;44579;51.672;7.834;2023-03-24T02:49:17;12.60;81.30
58809;DHT22;44579;51.672;7.834;2023-03-24T02:51:57;12.50;81.20
58809;DHT22;44579;51.672;7.834;2023-03-24T02:54:35;12.50;81.20
58809;DHT22;44579;51.672;7.834;2023-03-24T02:57:20;12.50;81.20
58809;DHT22;44579;51.672;7.834;2023-03-24T03:03:07;12.60;81.60
58809;DHT22;44579;51.672;7.834;2023-03-24T03:05:36;12.60;81.30
58809;DHT22;44579;51.672;7.834;2023-03-24T03:08:07;12.60;81.30
58809;DHT22;44579;51.672;7.834;2023-03-24T03:10:36;12.60;81.40
58809;DHT22;44579;51.672;7.834;2023-03-24T03:13:12;12.60;81.40
58809;DHT22;44579;51.672;7.834;2023-03-24T03:15:44;12.60;81.40
58809;DHT22;44579;51.672;7.834;2023-03-24T03:18:13;12.60;81.40
58809;DHT22;44579;51.672;7.834;2023-03-24T03:20:44;12.60;81.50
58809;DHT22;44579;51.672;7.834;2023-03-24T03:23:18;12.60;81.50
58809;DHT22;44579;51.672;7.834;2023-03-24T03:25:46;12.60;81.40
58809;DHT22;44579;51.672;7.834;2023-03-24T03:28:21;12.60;81.40
58809;DHT22;44579;51.672;7.834;2023-03-24T03:30:52;12.70;81.60
58809;DHT22;44579;51.672;7.834;2023-03-24T03:33:21;12.60;81.50
58809;DHT22;44579;51.672;7.834;2023-03-24T03:36:00;12.70;81.60
58809;DHT22;44579;51.672;7.834;2023-03-24T03:38:35;12.70;81.60
58809;DHT22;44579;51.672;7.834;2023-03-24T03:41:06;12.70;81.50
58809;DHT22;44579;51.672;7.834;2023-03-24T03:43:35;12.80;81.60
58809;DHT22;44579;51.672;7.834;2023-03-24T03:46:04;12.90;81.80
58809;DHT22;44579;51.672;7.834;2023-03-24T03:48:36;12.90;81.70
58809;DHT22;44579;51.672;7.834;2023-03-24T03:51:04;12.90;81.60
58809;DHT22;44579;51.672;7.834;2023-03-24T03:53:51;13.00;81.70
58809;DHT22;44579;51.672;7.834;2023-03-24T03:56:21;13.00;81.80
58809;DHT22;44579;51.672;7.834;2023-03-24T03:59:00;13.00;81.90
58809;DHT22;44579;51.672;7.834;2023-03-24T04:01:28;13.00;82.00
58809;DHT22;44579;51.672;7.834;2023-03-24T04:04:34;13.00;82.00
58809;DHT22;44579;51.672;7.834;2023-03-24T04:26:56;13.10;82.60
58809;DHT22;44579;51.672;7.834;2023-03-24T04:29:27;13.10;82.70
58809;DHT22;44579;51.672;7.834;2023-03-24T04:32:08;13.00;82.70
58809;DHT22;44579;51.672;7.834;2023-03-24T04:34:37;13.00;82.70
58809;DHT22;44579;51.672;7.834;2023-03-24T04:37:30;13.00;82.80
58809;DHT22;44579;51.672;7.834;2023-03-24T04:40:10;13.00;83.00
58809;DHT22;44579;51.672;7.834;2023-03-24T04:42:41;13.00;83.10
58809;DHT22;44579;51.672;7.834;2023-03-24T04:45:11;12.90;83.10
58809;DHT22;44579;51.672;7.834;2023-03-24T04:48:14;12.90;83.20
58809;DHT22;44579;51.672;7.834;2023-03-24T04:51:07;12.80;83.30
58809;DHT22;44579;51.672;7.834;2023-03-24T04:53:58;12.80;83.30
58809;DHT22;44579;51.672;7.834;2023-03-24T04:56:27;12.80;83.40
58809;DHT22;44579;51.672;7.834;2023-03-24T04:59:03;12.70;83.40
58809;DHT22;44579;51.672;7.834;2023-03-24T05:01:32;12.70;83.40
58809;DHT22;44579;51.672;7.834;2023-03-24T05:04:38;12.70;83.50
58809;DHT22;44579;51.672;7.834;2023-03-24T05:07:19;12.70;83.70
58809;DHT22;44579;51.672;7.834;2023-03-24T05:09:49;12.70;84.10
58809;DHT22;44579;51.672;7.834;2023-03-24T05:12:16;12.60;84.40
58809;DHT22;44579;51.672;7.834;2023-03-24T05:15:03;12.70;84.30
58809;DHT22;44579;51.672;7.834;2023-03-24T05:17:34;12.60;84.10
58809;DHT22;44579;51.672;7.834;2023-03-24T05:20:02;12.70;84.10
58809;DHT22;44579;51.672;7.834;2023-03-24T05:22:32;12.60;84.10
58809;DHT22;44579;51.672;7.834;2023-03-24T05:24:59;12.60;84.20
58809;DHT22;44579;51.672;7.834;2023-03-24T05:27:25;12.60;84.10
58809;DHT22;44579;51.672;7.834;2023-03-24T05:29:52;12.60;84.20
58809;DHT22;44579;51.672;7.834;2023-03-24T05:32:24;12.60;84.20
58809;DHT22;44579;51.672;7.834;2023-03-24T05:34:51;12.60;84.20
58809;DHT22;44579;51.672;7.834;2023-03-24T05:37:26;12.60;84.10
58809;DHT22;44579;51.672;7.834;2023-03-24T05:39:54;12.70;84.30
58809;DHT22;44579;51.672;7.834;2023-03-24T05:42:39;12.60;84.30
58809;DHT22;44579;51.672;7.834;2023-03-24T05:45:07;12.70;84.50
58809;DHT22;44579;51.672;7.834;2023-03-24T05:47:36;12.70;84.70
58809;DHT22;44579;51.672;7.834;2023-03-24T05:50:03;12.60;84.60
58809;DHT22;44579;51.672;7.834;2023-03-24T05:52:30;12.70;84.70
58809;DHT22;44579;51.672;7.834;2023-03-24T05:55:14;12.70;84.70
58809;DHT22;44579;51.672;7.834;2023-03-24T05:57:41;12.70;84.80
58809;DHT22;44579;51.672;7.834;2023-03-24T06:00:24;12.70;84.90
58809;DHT22;44579;51.672;7.834;2023-03-24T06:03:09;12.70;84.80
58809;DHT22;44579;51.672;7.834;2023-03-24T06:05:40;12.70;84.80
58809;DHT22;44579;51.672;7.834;2023-03-24T06:08:08;12.70;84.90
58809;DHT22;44579;51.672;7.834;2023-03-24T06:10:36;12.70;85.00
58809;DHT22;44579;51.672;7.834;2023-03-24T06:13:03;12.70;85.00
58809;DHT22;44579;51.672;7.834;2023-03-24T06:15:33;12.70;85.10
58809;DHT22;44579;51.672;7.834;2023-03-24T06:18:15;12.70;85.20
58809;DHT22;44579;51.672;7.834;2023-03-24T06:20:43;12.70;85.30
58809;DHT22;44579;51.672;7.834;2023-03-24T06:23:17;12.60;85.10
58809;DHT22;44579;51.672;7.834;2023-03-24T06:26:16;12.60;85.20
58809;DHT22;44579;51.672;7.834;2023-03-24T06:28:50;12.60;85.30
58809;DHT22;44579;51.672;7.834;2023-03-24T06:31:22;12.60;85.40
58809;DHT22;44579;51.672;7.834;2023-03-24T06:33:51;12.50;85.20
58809;DHT22;44579;51.672;7.834;2023-03-24T06:36:18;12.50;85.30
58809;DHT22;44579;51.672;7.834;2023-03-24T06:38:45;12.50;85.50
58809;DHT22;44579;51.672;7.834;2023-03-24T06:41:17;12.50;85.50
58809;DHT22;44579;51.672;7.834;2023-03-24T06:43:47;12.50;85.70
58809;DHT22;44579;51.672;7.834;2023-03-24T06:46:14;12.50;85.80
58809;DHT22;44579;51.672;7.834;2023-03-24T06:48:44;12.50;85.80
58809;DHT22;44579;51.672;7.834;2023-03-24T06:51:12;12.50;85.70
58809;DHT22;44579;51.672;7.834;2023-03-24T06:53:39;12.40;85.80
58809;DHT22;44579;51.672;7.834;2023-03-24T06:56:07;12.30;85.90
58809;DHT22;44579;51.672;7.834;2023-03-24T06:58:39;12.30;86.00
58809;DHT22;44579;51.672;7.834;2023-03-24T07:01:10;12.20;86.10
58809;DHT22;44579;51.672;7.834;2023-03-24T07:03:43;12.10;86.10
58809;DHT22;44579;51.672;7.834;2023-03-24T07:06:22;12.00;86.20
58809;DHT22;44579;51.672;7.834;2023-03-24T07:08:53;12.00;86.40
58809;DHT22;44579;51.672;7.834;2023-03-24T07:11:22;12.00;86.50
58809;DHT22;44579;51.672;7.834;2023-03-24T07:13:56;12.00;86.30
58809;DHT22;44579;51.672;7.834;2023-03-24T07:16:23;12.00;86.30
58809;DHT22;44579;51.672;7.834;2023-03-24T07:18:59;12.10;86.50
58809;DHT22;44579;51.672;7.834;2023-03-24T07:21:32;12.10;86.50
58809;DHT22;44579;51.672;7.834;2023-03-24T07:23:59;12.10;86.40
58809;DHT22;44579;51.672;7.834;2023-03-24T07:26:34;12.10;86.30
58809;DHT22;44579;51.672;7.834;2023-03-24T07:29:20;12.10;86.20
58809;DHT22;44579;51.672;7.834;2023-03-24T07:32:08;12.10;86.20
58809;DHT22;44579;51.672;7.834;2023-03-24T07:34:35;12.10;86.10
58809;DHT22;44579;51.672;7.834;2023-03-24T07:37:04;12.10;86.40
58809;DHT22;44579;51.672;7.834;2023-03-24T07:39:31;12.20;86.40
58809;DHT22;44579;51.672;7.834;2023-03-24T07:41:58;12.30;86.10
58809;DHT22;44579;51.672;7.834;2023-03-24T07:44:38;12.30;85.90
58809;DHT22;44579;51.672;7.834;2023-03-24T07:47:05;12.30;85.90
58809;DHT22;44579;51.672;7.834;2023-03-24T07:49:32;12.30;85.80
58809;DHT22;44579;51.672;7.834;2023-03-24T07:52:03;12.40;85.90
58809;DHT22;44579;51.672;7.834;2023-03-24T07:54:41;12.50;85.80
58809;DHT22;44579;51.672;7.834;2023-03-24T07:57:10;12.50;85.80
58809;DHT22;44579;51.672;7.834;2023-03-24T07:59:37;12.60;85.70
58809;DHT22;44579;51.672;7.834;2023-03-24T08:02:30;12.60;85.90
58809;DHT22;44579;51.672;7.834;2023-03-24T08:05:20;12.70;86.30
58809;DHT22;44579;51.672;7.834;2023-03-24T08:08:16;12.70;86.40
58809;DHT22;44579;51.672;7.834;2023-03-24T08:10:43;12.70;86.40
58809;DHT22;44579;51.672;7.834;2023-03-24T08:13:12;12.70;86.50
58809;DHT22;44579;51.672;7.834;2023-03-24T08:15:38;12.70;86.50
58809;DHT22;44579;51.672;7.834;2023-03-24T08:18:07;12.70;86.60
58809;DHT22;44579;51.672;7.834;2023-03-24T08:20:34;12.70;86.70
58809;DHT22;44579;51.672;7.834;2023-03-24T08:23:01;12.80;86.80
58809;DHT22;44579;51.672;7.834;2023-03-24T08:25:30;12.90;86.90
58809;DHT22;44579;51.672;7.834;2023-03-24T08:27:57;13.00;86.80
58809;DHT22;44579;51.672;7.834;2023-03-24T08:30:24;13.00;86.80
58809;DHT22;44579;51.672;7.834;2023-03-24T08:32:56;13.10;86.70
58809;DHT22;44579;51.672;7.834;2023-03-24T08:35:27;13.20;86.60
58809;DHT22;44579;51.672;7.834;2023-03-24T08:37:54;13.30;86.90
58809;DHT22;44579;51.672;7.834;2023-03-24T08:40:21;13.30;87.40
58809;DHT22;44579;51.672;7.834;2023-03-24T08:42:51;13.30;87.80
58809;DHT22;44579;51.672;7.834;2023-03-24T08:45:19;13.40;87.90
58809;DHT22;44579;51.672;7.834;2023-03-24T08:47:50;13.40;88.30
58809;DHT22;44579;51.672;7.834;2023-03-24T08:50:18;13.50;88.70
58809;DHT22;44579;51.672;7.834;2023-03-24T08:52:47;13.70;88.90
58809;DHT22;44579;51.672;7.834;2023-03-24T08:55:15;13.80;89.20
58809;DHT22;44579;51.672;7.834;2023-03-24T08:57:42;14.00;89.00
58809;DHT22;44579;51.672;7.834;2023-03-24T09:00:09;14.00;89.30
58809;DHT22;44579;51.672;7.834;2023-03-24T09:02:42;14.10;89.10
58809;DHT22;44579;51.672;7.834;2023-03-24T09:05:10;14.20;89.10
58809;DHT22;44579;51.672;7.834;2023-03-24T09:07:37;14.30;89.20
58809;DHT22;44579;51.672;7.834;2023-03-24T09:10:05;14.30;89.20
58809;DHT22;44579;51.672;7.834;2023-03-24T09:12:36;14.40;89.50
58809;DHT22;44579;51.672;7.834;2023-03-24T09:15:04;14.40;89.50
58809;DHT22;44579;51.672;7.834;2023-03-24T09:17:32;14.40;89.60
58809;DHT22;44579;51.672;7.834;2023-03-24T09:19:58;14.50;89.80
58809;DHT22;44579;51.672;7.834;2023-03-24T09:22:27;14.50;89.70
58809;DHT22;44579;51.672;7.834;2023-03-24T09:24:54;14.40;90.00
58809;DHT22;44579;51.672;7.834;2023-03-24T09:27:21;14.30;90.10
58809;DHT22;44579;51.672;7.834;2023-03-24T09:29:48;14.30;90.20
58809;DHT22;44579;51.672;7.834;2023-03-24T09:32:15;14.20;90.30
58809;DHT22;44579;51.672;7.834;2023-03-24T09:34:42;14.20;90.20
58809;DHT22;44579;51.672;7.834;2023-03-24T09:37:09;14.20;90.20
58809;DHT22;44579;51.672;7.834;2023-03-24T09:39:36;14.20;90.20
58809;DHT22;44579;51.672;7.834;2023-03-24T09:42:06;14.20;90.30
58809;DHT22;44579;51.672;7.834;2023-03-24T09:44:44;14.30;90.20
58809;DHT22;44579;51.672;7.834;2023-03-24T09:47:17;14.30;90.20
58809;DHT22;44579;51.672;7.834;2023-03-24T09:49:48;14.30;90.30
58809;DHT22;44579;51.672;7.834;2023-03-24T09:52:22;14.40;90.70
58809;DHT22;44579;51.672;7.834;2023-03-24T09:54:52;14.50;90.30
58809;DHT22;44579;51.672;7.834;2023-03-24T10:02:48;14.70;90.50
58809;DHT22;44579;51.672;7.834;2023-03-24T10:05:20;14.60;90.60
58809;DHT22;44579;51.672;7.834;2023-03-24T10:07:53;14.70;90.40
58809;DHT22;44579;51.672;7.834;2023-03-24T10:10:29;14.70;90.30
58809;DHT22;44579;51.672;7.834;2023-03-24T10:13:00;14.50;90.40
58809;DHT22;44579;51.672;7.834;2023-03-24T10:15:32;14.30;90.50
58809;DHT22;44579;51.672;7.834;2023-03-24T10:20:35;14.20;90.70
58809;DHT22;44579;51.672;7.834;2023-03-24T10:25:44;14.30;90.70
58809;DHT22;44579;51.672;7.834;2023-03-24T10:28:19;14.40;90.60
58809;DHT22;44579;51.672;7.834;2023-03-24T10:30:47;14.50;90.40
58809;DHT22;44579;51.672;7.834;2023-03-24T10:33:15;14.50;90.40
58809;DHT22;44579;51.672;7.834;2023-03-24T10:35:54;14.60;90.40
58809;DHT22;44579;51.672;7.834;2023-03-24T10:38:22;14.70;90.30
58809;DHT22;44579;51.672;7.834;2023-03-24T10:40:49;14.80;90.30
58809;DHT22;44579;51.672;7.834;2023-03-24T10:43:17;14.90;90.40
58809;DHT22;44579;51.672;7.834;2023-03-24T10:45:48;14.90;90.30
58809;DHT22;44579;51.672;7.834;2023-03-24T10:51:02;14.90;90.40
58809;DHT22;44579;51.672;7.834;2023-03-24T10:53:29;14.90;90.50
58809;DHT22;44579;51.672;7.834;2023-03-24T10:55:56;14.80;90.60
58809;DHT22;44579;51.672;7.834;2023-03-24T10:58:39;14.80;90.50
58809;DHT22;44579;51.672;7.834;2023-03-24T11:01:21;14.80;90.40
58809;DHT22;44579;51.672;7.834;2023-03-24T11:03:50;14.70;90.30
58809;DHT22;44579;51.672;7.834;2023-03-24T11:06:19;14.60;90.20
58809;DHT22;44579;51.672;7.834;2023-03-24T11:08:46;14.60;90.20
58809;DHT22;44579;51.672;7.834;2023-03-24T11:11:20;14.60;90.20
58809;DHT22;44579;51.672;7.834;2023-03-24T11:13:55;14.50;89.90
58809;DHT22;44579;51.672;7.834;2023-03-24T11:16:30;14.40;89.30
58809;DHT22;44579;51.672;7.834;2023-03-24T11:19:02;14.40;89.00
58809;DHT22;44579;51.672;7.834;2023-03-24T11:21:30;14.40;88.70
58809;DHT22;44579;51.672;7.834;2023-03-24T11:23:58;14.60;88.50
58809;DHT22;44579;51.672;7.834;2023-03-24T11:26:35;14.60;88.10
58809;DHT22;44579;51.672;7.834;2023-03-24T11:29:04;14.70;88.00
58809;DHT22;44579;51.672;7.834;2023-03-24T11:31:34;14.70;87.80
58809;DHT22;44579;51.672;7.834;2023-03-24T11:36:39;14.70;87.20
58809;DHT22;44579;51.672;7.834;2023-03-24T11:39:13;14.60;87.00
58809;DHT22;44579;51.672;7.834;2023-03-24T11:41:50;14.70;87.00
58809;DHT22;44579;51.672;7.834;2023-03-24T11:44:19;14.70;86.50
58809;DHT22;44579;51.672;7.834;2023-03-24T11:46:52;14.70;86.30
58809;DHT22;44579;51.672;7.834;2023-03-24T11:49:31;14.70;86.00
58809;DHT22;44579;51.672;7.834;2023-03-24T11:52:03;14.70;85.80
58809;DHT22;44579;51.672;7.834;2023-03-24T11:54:35;14.80;85.60
58809;DHT22;44579;51.672;7.834;2023-03-24T11:57:07;14.90;85.20
58809;DHT22;44579;51.672;7.834;2023-03-24T11:59:51;15.00;85.00
58809;DHT22;44579;51.672;7.834;2023-03-24T12:02:29;15.10;84.80
58809;DHT22;44579;51.672;7.834;2023-03-24T12:05:04;15.30;84.50
58809;DHT22;44579;51.672;7.834;2023-03-24T12:10:32;15.60;84.50
58809;DHT22;44579;51.672;7.834;2023-03-24T12:13:14;15.70;84.30
58809;DHT22;44579;51.672;7.834;2023-03-24T12:16:08;15.90;84.10
58809;DHT22;44579;51.672;7.834;2023-03-24T12:18:41;16.00;83.50
58809;DHT22;44579;51.672;7.834;2023-03-24T12:21:17;16.00;83.20
58809;DHT22;44579;51.672;7.834;2023-03-24T12:26:44;16.10;83.10
58809;DHT22;44579;51.672;7.834;2023-03-24T12:29:23;16.00;82.70
58809;DHT22;44579;51.672;7.834;2023-03-24T12:32:08;15.90;82.60
58809;DHT22;44579;51.672;7.834;2023-03-24T12:34:49;15.90;82.20
58809;DHT22;44579;51.672;7.834;2023-03-24T12:37:25;15.80;82.00
58809;DHT22;44579;51.672;7.834;2023-03-24T12:42:24;15.60;80.50
58809;DHT22;44579;51.672;7.834;2023-03-24T12:45:02;15.50;80.10
58809;DHT22;44579;51.672;7.834;2023-03-24T12:52:39;15.40;79.20
58809;DHT22;44579;51.672;7.834;2023-03-24T12:55:13;15.50;79.10
58809;DHT22;44579;51.672;7.834;2023-03-24T12:57:48;15.60;78.60
58809;DHT22;44579;51.672;7.834;2023-03-24T13:00:26;15.60;78.30
58809;DHT22;44579;51.672;7.834;2023-03-24T13:02:55;15.70;78.10
58809;DHT22;44579;51.672;7.834;2023-03-24T13:05:27;15.70;78.00
58809;DHT22;44579;51.672;7.834;2023-03-24T13:07:55;15.60;77.70
58809;DHT22;44579;51.672;7.834;2023-03-24T13:10:33;15.60;77.70
58809;DHT22;44579;51.672;7.834;2023-03-24T13:13:12;15.60;77.80
58809;DHT22;44579;51.672;7.834;2023-03-24T13:15:46;15.60;77.70
58809;DHT22;44579;51.672;7.834;2023-03-24T13:18:36;15.70;77.50
58809;DHT22;44579;51.672;7.834;2023-03-24T13:21:05;15.60;77.30
58809;DHT22;44579;51.672;7.834;2023-03-24T13:26:14;15.70;77.20
58809;DHT22;44579;51.672;7.834;2023-03-24T13:31:38;15.90;76.90
58809;DHT22;44579;51.672;7.834;2023-03-24T13:34:13;15.90;76.50
58809;DHT22;44579;51.672;7.834;2023-03-24T13:36:50;15.80;76.20
58809;DHT22;44579;51.672;7.834;2023-03-24T13:39:19;15.80;75.90
58809;DHT22;44579;51.672;7.834;2023-03-24T13:41:48;15.80;75.50
58809;DHT22;44579;51.672;7.834;2023-03-24T13:44:21;15.70;75.00
58809;DHT22;44579;51.672;7.834;2023-03-24T13:49:34;15.80;75.00
58809;DHT22;44579;51.672;7.834;2023-03-24T13:52:02;15.80;74.90
58809;DHT22;44579;51.672;7.834;2023-03-24T13:54:29;15.80;74.70
58809;DHT22;44579;51.672;7.834;2023-03-24T13:57:01;15.80;74.50
58809;DHT22;44579;51.672;7.834;2023-03-24T14:02:19;15.80;74.60
58809;DHT22;44579;51.672;7.834;2023-03-24T14:04:48;15.80;74.30
58809;DHT22;44579;51.672;7.834;2023-03-24T14:07:27;15.80;74.30
58809;DHT22;44579;51.672;7.834;2023-03-24T14:09:56;15.80;74.10
58809;DHT22;44579;51.672;7.834;2023-03-24T14:12:23;15.90;74.10
58809;DHT22;44579;51.672;7.834;2023-03-24T14:15:36;16.00;74.00
58809;DHT22;44579;51.672;7.834;2023-03-24T14:17:44;16.00;73.60
58809;DHT22;44579;51.672;7.834;2023-03-24T14:20:15;16.00;73.30
58809;DHT22;44579;51.672;7.834;2023-03-24T14:22:48;16.00;73.20
58809;DHT22;44579;51.672;7.834;2023-03-24T14:25:21;15.90;73.20
58809;DHT22;44579;51.672;7.834;2023-03-24T14:27:50;15.80;73.40
58809;DHT22;44579;51.672;7.834;2023-03-24T14:30:27;15.70;73.30
58809;DHT22;44579;51.672;7.834;2023-03-24T14:32:57;15.60;73.30
58809;DHT22;44579;51.672;7.834;2023-03-24T14:40:41;15.30;73.40
58809;DHT22;44579;51.672;7.834;2023-03-24T14:43:17;15.20;73.40
58809;DHT22;44579;51.672;7.834;2023-03-24T14:45:52;15.00;72.50
58809;DHT22;44579;51.672;7.834;2023-03-24T14:50:49;14.00;73.80
58809;DHT22;44579;51.672;7.834;2023-03-24T14:53:18;13.60;74.10
58809;DHT22;44579;51.672;7.834;2023-03-24T14:55:49;13.50;74.50
58809;DHT22;44579;51.672;7.834;2023-03-24T14:58:29;13.50;74.40
58809;DHT22;44579;51.672;7.834;2023-03-24T15:00:57;13.60;74.10
58809;DHT22;44579;51.672;7.834;2023-03-24T15:03:49;13.60;73.80
58809;DHT22;44579;51.672;7.834;2023-03-24T15:06:19;13.50;73.60
58809;DHT22;44579;51.672;7.834;2023-03-24T15:08:53;13.40;73.10
58809;DHT22;44579;51.672;7.834;2023-03-24T15:11:23;13.40;73.40
58809;DHT22;44579;51.672;7.834;2023-03-24T15:13:52;13.40;73.60
58809;DHT22;44579;51.672;7.834;2023-03-24T15:16:23;13.40;73.70
58809;DHT22;44579;51.672;7.834;2023-03-24T15:23:54;13.30;73.50
58809;DHT22;44579;51.672;7.834;2023-03-24T15:26:22;13.30;73.20
58809;DHT22;44579;51.672;7.834;2023-03-24T15:28:53;13.40;73.40
58809;DHT22;44579;51.672;7.834;2023-03-24T15:31:21;13.40;73.30
58809;DHT22;44579;51.672;7.834;2023-03-24T15:33:50;13.40;73.20
58809;DHT22;44579;51.672;7.834;2023-03-24T15:36:19;13.50;74.00
58809;DHT22;44579;51.672;7.834;2023-03-24T15:38:47;13.50;73.00
58809;DHT22;44579;51.672;7.834;2023-03-24T15:41:17;13.40;73.10
58809;DHT22;44579;51.672;7.834;2023-03-24T15:43:54;13.40;73.10
58809;DHT22;44579;51.672;7.834;2023-03-24T15:48:47;13.30;73.30
58809;DHT22;44579;51.672;7.834;2023-03-24T15:51:15;13.30;73.30
58809;DHT22;44579;51.672;7.834;2023-03-24T15:53:55;13.20;73.30
58809;DHT22;44579;51.672;7.834;2023-03-24T15:56:30;13.30;73.60
58809;DHT22;44579;51.672;7.834;2023-03-24T16:01:25;13.50;73.20
58809;DHT22;44579;51.672;7.834;2023-03-24T16:03:53;13.70;73.10
58809;DHT22;44579;51.672;7.834;2023-03-24T16:06:24;13.70;73.10
58809;DHT22;44579;51.672;7.834;2023-03-24T16:08:52;13.60;73.20
58809;DHT22;44579;51.672;7.834;2023-03-24T16:11:19;13.70;73.30
58809;DHT22;44579;51.672;7.834;2023-03-24T16:13:46;13.70;73.20
58809;DHT22;44579;51.672;7.834;2023-03-24T16:18:45;13.60;73.00
58809;DHT22;44579;51.672;7.834;2023-03-24T16:21:17;13.70;73.10
58809;DHT22;44579;51.672;7.834;2023-03-24T16:23:44;13.60;73.10
58809;DHT22;44579;51.672;7.834;2023-03-24T16:26:22;13.60;73.10
58809;DHT22;44579;51.672;7.834;2023-03-24T16:28:50;13.40;73.30
58809;DHT22;44579;51.672;7.834;2023-03-24T16:31:27;13.30;73.60
58809;DHT22;44579;51.672;7.834;2023-03-24T16:33:56;13.20;73.80
58809;DHT22;44579;51.672;7.834;2023-03-24T16:36:24;13.10;73.90
58809;DHT22;44579;51.672;7.834;2023-03-24T16:38:54;13.10;74.00
58809;DHT22;44579;51.672;7.834;2023-03-24T16:41:21;13.00;73.90
58809;DHT22;44579;51.672;7.834;2023-03-24T16:43:51;13.00;74.00
58809;DHT22;44579;51.672;7.834;2023-03-24T16:46:28;13.00;74.00
58809;DHT22;44579;51.672;7.834;2023-03-24T16:48:56;13.00;73.90
58809;DHT22;44579;51.672;7.834;2023-03-24T16:51:23;13.00;73.90
58809;DHT22;44579;51.672;7.834;2023-03-24T16:53:52;12.90;73.70
58809;DHT22;44579;51.672;7.834;2023-03-24T16:56:20;12.90;73.70
58809;DHT22;44579;51.672;7.834;2023-03-24T16:58:48;12.90;73.60
58809;DHT22;44579;51.672;7.834;2023-03-24T17:01:34;12.90;73.50
58809;DHT22;44579;51.672;7.834;2023-03-24T17:04:11;12.90;73.60
58809;DHT22;44579;51.672;7.834;2023-03-24T17:06:39;12.90;73.50
58809;DHT22;44579;51.672;7.834;2023-03-24T17:09:07;12.90;73.50
58809;DHT22;44579;51.672;7.834;2023-03-24T17:11:36;12.90;73.50
58809;DHT22;44579;51.672;7.834;2023-03-24T17:14:04;12.90;73.50
58809;DHT22;44579;51.672;7.834;2023-03-24T17:16:34;12.80;73.60
58809;DHT22;44579;51.672;7.834;2023-03-24T17:19:03;12.80;73.70
58809;DHT22;44579;51.672;7.834;2023-03-24T17:21:31;12.70;73.80
58809;DHT22;44579;51.672;7.834;2023-03-24T17:23:59;12.70;73.80
58809;DHT22;44579;51.672;7.834;2023-03-24T17:26:26;12.60;73.90
58809;DHT22;44579;51.672;7.834;2023-03-24T17:28:54;12.60;73.80